Time;durP1;ratioP1;P1;durP2;ratioP2;P2;SDS_P1;SDS_P2;PMS_P1;PMS_P2;Temp;Humidity;BMP_temperature;BMP_pressure;BME280_temperature;BME280_humidity;BME280_pressure;Samples;Min_cycle;Max_cycle;Signal;HPM_P1;HPM_P2
2024/04/23 00:00:29;;;;;;;22.10;14.00;;;;;;;3.10;75.08;100873.12;1724907;83;28112;-63
2024/04/23 00:02:57;;;;;;;27.77;13.83;;;;;;;3.10;75.45;100872.61;1724898;82;25631;-63
2024/04/23 00:05:23;;;;;;;19.65;12.47;;;;;;;3.09;75.42;100864.30;1724946;83;25455;-62
2024/04/23 00:07:50;;;;;;;22.25;12.98;;;;;;;3.09;75.47;100864.30;1724862;83;25999;-62
2024/04/23 00:10:16;;;;;;;22.30;12.93;;;;;;;3.08;75.52;100867.21;1724897;83;25652;-62
2024/04/23 00:12:42;;;;;;;21.80;11.95;;;;;;;3.05;75.43;100859.67;1724840;83;27067;-63
2024/04/23 00:15:09;;;;;;;21.05;12.82;;;;;;;3.04;75.42;100858.08;1724728;82;25818;-63
2024/04/23 00:17:35;;;;;;;26.35;13.62;;;;;;;3.03;75.35;100855.11;1724986;82;25648;-63
2024/04/23 00:20:01;;;;;;;27.98;14.45;;;;;;;3.05;75.52;100857.84;1724875;83;25645;-63
2024/04/23 00:22:28;;;;;;;21.60;11.88;;;;;;;3.03;75.64;100855.94;1724899;83;25619;-63
2024/04/23 00:24:54;;;;;;;22.32;11.57;;;;;;;3.02;75.59;100856.98;1724891;83;27380;-63
2024/04/23 00:27:20;;;;;;;27.25;14.20;;;;;;;3.04;75.77;100850.06;1724792;82;25750;-63
2024/04/23 00:29:46;;;;;;;23.22;12.73;;;;;;;3.05;75.82;100841.80;1724892;83;25423;-63
2024/04/23 00:32:12;;;;;;;22.35;13.35;;;;;;;3.06;75.86;100842.06;1724854;83;25457;-64
2024/04/23 00:34:38;;;;;;;22.80;12.58;;;;;;;3.07;76.09;100842.36;1724838;82;25477;-64
2024/04/23 00:37:04;;;;;;;21.57;13.38;;;;;;;3.07;75.84;100842.36;1724855;83;27372;-64
2024/04/23 00:39:31;;;;;;;22.30;13.48;;;;;;;3.08;75.91;100841.31;1724798;82;25600;-64
2024/04/23 00:41:59;;;;;;;21.55;13.30;;;;;;;3.09;76.14;100843.45;1732743;82;25481;-64
2024/04/23 00:44:25;;;;;;;21.00;13.10;;;;;;;3.10;76.18;100841.88;1734458;81;25409;-64
2024/04/23 00:46:52;;;;;;;22.05;13.58;;;;;;;3.12;76.24;100844.30;1734465;82;25581;-64
2024/04/23 00:49:20;;;;;;;20.55;12.75;;;;;;;3.11;76.22;100846.15;1734482;82;29464;-64
2024/04/23 00:51:50;;;;;;;21.40;12.40;;;;;;;3.11;76.28;100850.16;1734467;82;25625;-64
2024/04/23 00:54:18;;;;;;;27.15;13.85;;;;;;;3.12;76.07;100854.46;1734431;82;25465;-64
2024/04/23 00:56:45;;;;;;;24.72;13.43;;;;;;;3.12;76.13;100855.80;1734450;82;25906;-64
2024/04/23 00:59:17;;;;;;;23.07;12.95;;;;;;;3.11;76.13;100854.70;1734565;82;25461;-63
2024/04/23 01:01:45;;;;;;;20.62;12.80;;;;;;;3.10;75.92;100858.41;1734524;82;27353;-62
2024/04/23 01:04:12;;;;;;;21.65;12.85;;;;;;;3.08;76.19;100857.35;1734409;82;25433;-62
2024/04/23 01:06:40;;;;;;;23.25;13.93;;;;;;;3.06;76.15;100854.63;1734533;82;25426;-63
2024/04/23 01:09:07;;;;;;;23.10;13.88;;;;;;;3.03;76.40;100855.94;1734488;82;26032;-63
2024/04/23 01:11:34;;;;;;;21.65;13.80;;;;;;;3.02;76.43;100858.31;1734530;82;25423;-63
2024/04/23 01:14:03;;;;;;;26.40;13.88;;;;;;;2.98;76.46;100859.88;1734514;82;27338;-63
2024/04/23 01:16:35;;;;;;;22.77;13.45;;;;;;;2.95;76.32;100857.15;1734564;82;25427;-63
2024/04/23 01:19:05;;;;;;;22.50;13.88;;;;;;;2.95;76.64;100868.38;1734571;82;25482;-63
2024/04/23 01:21:54;;;;;;;23.52;14.05;;;;;;;2.93;76.60;100857.92;1734472;82;25959;-63
2024/04/23 01:24:26;;;;;;;24.27;13.18;;;;;;;2.94;76.85;100866.73;1734524;82;25607;-64
2024/04/23 01:26:52;;;;;;;19.10;12.15;;;;;;;2.92;76.71;100862.97;1734601;82;27576;-64
2024/04/23 01:29:19;;;;;;;22.25;12.70;;;;;;;2.93;76.88;100859.80;1734422;82;25597;-63
2024/04/23 01:31:46;;;;;;;20.50;12.98;;;;;;;2.90;76.79;100859.74;1734487;82;25409;-63
2024/04/23 01:34:12;;;;;;;23.10;13.18;;;;;;;2.91;76.63;100849.85;1734424;82;25639;-63
2024/04/23 01:36:39;;;;;;;21.80;12.58;;;;;;;2.89;77.03;100855.44;1705299;82;25444;-63
2024/04/23 01:39:06;;;;;;;21.05;12.60;;;;;;;2.90;77.07;100850.92;1734498;82;27332;-62
2024/04/23 01:41:34;;;;;;;20.92;12.58;;;;;;;2.89;77.16;100839.41;1729424;82;25750;-62
2024/04/23 01:44:00;;;;;;;22.52;13.78;;;;;;;2.89;76.93;100841.28;1724850;83;25442;-62
2024/04/23 01:46:27;;;;;;;21.33;12.85;;;;;;;2.87;77.05;100842.85;1724792;83;26167;-62
2024/04/23 01:48:54;;;;;;;22.70;12.82;;;;;;;2.86;77.00;100839.92;1724852;82;25409;-63
2024/04/23 01:51:21;;;;;;;21.93;12.70;;;;;;;2.85;77.18;100826.80;1724853;83;27399;-63
2024/04/23 01:53:47;;;;;;;22.05;12.37;;;;;;;2.83;77.32;100832.89;1724717;83;25401;-63
2024/04/23 01:56:13;;;;;;;20.97;13.32;;;;;;;2.82;77.51;100826.74;1724769;82;25563;-63
2024/04/23 01:58:39;;;;;;;18.25;11.60;;;;;;;2.80;77.39;100823.52;1699983;83;25663;-63
2024/04/23 02:01:07;;;;;;;19.67;12.65;;;;;;;2.80;77.39;100830.20;1724853;83;25426;-61
2024/04/23 02:03:34;;;;;;;18.20;11.80;;;;;;;2.78;77.58;100822.95;1724832;83;27396;-63
2024/04/23 02:06:02;;;;;;;25.55;12.98;;;;;;;2.77;77.30;100825.33;1724806;83;25634;-63
2024/04/23 02:08:29;;;;;;;21.68;11.88;;;;;;;2.77;77.53;100821.33;1724994;83;25673;-63
2024/04/23 02:10:55;;;;;;;24.95;12.50;;;;;;;2.75;77.62;100824.77;1724959;83;26072;-63
2024/04/23 02:13:21;;;;;;;18.92;12.43;;;;;;;2.72;77.48;100820.70;1725004;83;25655;-64
2024/04/23 02:15:48;;;;;;;25.30;12.78;;;;;;;2.72;77.74;100828.72;1724985;83;27346;-64
2024/04/23 02:18:14;;;;;;;23.98;12.23;;;;;;;2.71;77.79;100827.66;1724855;82;25585;-64
2024/04/23 02:20:40;;;;;;;19.40;12.45;;;;;;;2.68;77.54;100828.94;1700179;83;25654;-64
2024/04/23 02:23:06;;;;;;;23.40;13.05;;;;;;;2.67;77.54;100831.31;1724945;83;25432;-64
2024/04/23 02:25:34;;;;;;;20.85;12.78;;;;;;;2.66;77.89;100839.06;1724959;83;25614;-63
2024/04/23 02:28:00;;;;;;;21.70;12.63;;;;;;;2.65;78.13;100835.30;1725003;83;27934;-63
2024/04/23 02:30:26;;;;;;;22.60;12.75;;;;;;;2.63;78.30;100840.08;1724840;83;25451;-63
2024/04/23 02:32:52;;;;;;;21.15;13.00;;;;;;;2.59;78.36;100840.55;1724983;83;25588;-63
2024/04/23 02:35:19;;;;;;;19.37;12.23;;;;;;;2.58;78.37;100837.59;1724946;82;27571;-63
2024/04/23 02:37:45;;;;;;;21.27;12.90;;;;;;;2.57;78.18;100835.16;1725091;83;25419;-63
2024/04/23 02:40:11;;;;;;;20.02;12.95;;;;;;;2.58;78.30;100842.93;1725037;83;27312;-63
2024/04/23 02:42:37;;;;;;;21.00;12.65;;;;;;;2.57;78.38;100849.34;1724771;82;25426;-63
2024/04/23 02:45:05;;;;;;;24.12;13.13;;;;;;;2.56;78.51;100846.38;1724971;83;25595;-63
2024/04/23 02:47:31;;;;;;;22.00;13.08;;;;;;;2.54;78.50;100848.48;1724885;83;25638;-63
2024/04/23 02:49:57;;;;;;;21.10;11.70;;;;;;;2.49;78.58;100843.06;1724900;82;25585;-63
2024/04/23 02:52:23;;;;;;;22.70;12.82;;;;;;;2.51;78.72;100850.30;1724877;83;27410;-62
2024/04/23 02:54:49;;;;;;;20.32;12.93;;;;;;;2.51;78.71;100846.29;1724819;83;25564;-64
2024/04/23 02:57:16;;;;;;;19.57;12.20;;;;;;;2.51;78.78;100852.16;1724932;83;25583;-63
2024/04/23 02:59:42;;;;;;;23.32;11.50;;;;;;;2.50;78.81;100850.00;1724841;82;25393;-62
2024/04/23 03:02:10;;;;;;;20.15;12.55;;;;;;;2.51;78.79;100852.16;1724909;83;25391;-62
2024/04/23 03:04:36;;;;;;;20.70;12.58;;;;;;;2.49;79.07;100853.73;1725026;82;27673;-63
2024/04/23 03:07:02;;;;;;;22.35;13.28;;;;;;;2.49;78.97;100851.07;1724776;83;25543;-63
2024/04/23 03:09:29;;;;;;;20.25;12.20;;;;;;;2.49;78.88;100856.94;1724931;82;25642;-63
2024/04/23 03:11:55;;;;;;;21.25;12.47;;;;;;;2.48;79.11;100859.31;1724865;82;25544;-63
2024/04/23 03:14:21;;;;;;;20.32;11.97;;;;;;;2.47;78.89;100859.85;1724908;83;25540;-63
2024/04/23 03:16:49;;;;;;;21.15;12.78;;;;;;;2.46;79.06;100857.42;1724930;83;25847;-63
2024/04/23 03:19:15;;;;;;;21.33;12.65;;;;;;;2.45;79.22;100855.25;1724747;83;25568;-63
2024/04/23 03:21:53;;;;;;;21.05;11.97;;;;;;;2.43;79.15;100848.84;1724922;82;25411;-63
2024/04/23 03:24:20;;;;;;;20.35;12.85;;;;;;;2.42;79.49;100851.22;1724974;83;25576;-63
2024/04/23 03:26:46;;;;;;;22.50;13.65;;;;;;;2.42;79.54;100849.88;1724906;83;25376;-63
2024/04/23 03:29:12;;;;;;;18.57;12.50;;;;;;;2.41;79.66;100841.58;1724877;83;27482;-63
2024/04/23 03:31:39;;;;;;;20.82;12.70;;;;;;;2.41;79.76;100848.25;1724770;82;27194;-63
2024/04/23 03:34:05;;;;;;;21.20;12.78;;;;;;;2.40;79.69;100849.32;1724914;83;25411;-63
2024/04/23 03:36:31;;;;;;;23.35;13.22;;;;;;;2.42;79.54;100845.88;1724832;82;25381;-63
2024/04/23 03:38:57;;;;;;;24.50;13.25;;;;;;;2.42;79.96;100847.75;1724946;82;25630;-63
2024/04/23 03:41:23;;;;;;;22.75;13.50;;;;;;;2.43;79.90;100849.34;1726910;82;27294;-63
2024/04/23 03:43:50;;;;;;;20.82;12.82;;;;;;;2.43;79.92;100842.67;1734531;82;25646;-63
2024/04/23 03:46:16;;;;;;;20.48;13.08;;;;;;;2.42;80.06;100841.88;1734573;82;25466;-63
2024/04/23 03:48:42;;;;;;;21.20;13.28;;;;;;;2.43;79.97;100840.84;1734593;82;25860;-63
2024/04/23 03:51:08;;;;;;;25.57;13.65;;;;;;;2.45;79.87;100847.78;1734549;82;25619;-63
2024/04/23 03:53:34;;;;;;;22.32;13.10;;;;;;;2.46;79.81;100849.41;1734569;82;27349;-63
2024/04/23 03:56:00;;;;;;;21.45;13.15;;;;;;;2.46;80.08;100841.40;1734401;82;25595;-63
2024/04/23 03:58:27;;;;;;;20.85;13.08;;;;;;;2.46;80.19;100845.41;1734546;82;25647;-63
2024/04/23 04:00:53;;;;;;;22.77;12.30;;;;;;;2.47;80.08;100848.34;1734474;82;25591;-64
2024/04/23 04:06:04;;;;;;;20.92;12.82;;;;;;;2.48;80.11;100844.63;1734511;82;27333;-63
2024/04/23 04:08:31;;;;;;;20.10;12.78;;;;;;;2.51;80.16;100846.83;1734451;82;25402;-63
2024/04/23 04:10:57;;;;;;;22.02;12.82;;;;;;;2.50;80.38;100844.66;1734507;82;25565;-63
2024/04/23 04:13:23;;;;;;;28.52;13.88;;;;;;;2.51;80.41;100854.84;1734480;82;25566;-63
2024/04/23 04:15:50;;;;;;;22.60;13.78;;;;;;;2.49;80.49;100847.06;1734546;82;25573;-63
2024/04/23 04:18:17;;;;;;;24.72;14.35;;;;;;;2.49;80.46;100850.27;1734511;82;26552;-63
2024/04/23 04:20:44;;;;;;;22.62;13.40;;;;;;;2.48;80.50;100852.64;1734469;82;25578;-63
2024/04/23 04:23:10;;;;;;;19.62;13.25;;;;;;;2.46;80.50;100848.88;1734536;82;25432;-63
2024/04/23 04:25:36;;;;;;;24.00;13.58;;;;;;;2.48;80.90;100851.31;1734478;82;25575;-63
2024/04/23 04:28:04;;;;;;;24.85;14.75;;;;;;;2.50;80.88;100847.86;1734554;82;25384;-63
2024/04/23 04:30:31;;;;;;;22.32;14.28;;;;;;;2.51;80.98;100847.63;1734483;82;27402;-63
2024/04/23 04:32:57;;;;;;;23.35;13.93;;;;;;;2.54;80.91;100846.34;1734412;82;25885;-63
2024/04/23 04:35:23;;;;;;;20.97;13.90;;;;;;;2.56;80.80;100845.04;1734453;82;25531;-63
2024/04/23 04:37:49;;;;;;;21.93;13.40;;;;;;;2.59;80.96;100851.77;1734490;82;25570;-63
2024/04/23 04:40:16;;;;;;;19.65;12.95;;;;;;;2.63;81.07;100850.23;1734518;82;25446;-63
2024/04/23 04:42:42;;;;;;;23.85;13.43;;;;;;;2.65;81.05;100843.31;1728513;82;27331;-63
2024/04/23 04:45:08;;;;;;;24.98;14.05;;;;;;;2.66;81.14;100839.59;1724778;83;25495;-63
2024/04/23 04:47:34;;;;;;;25.68;13.93;;;;;;;2.69;80.95;100847.10;1724884;83;25633;-63
2024/04/23 04:50:01;;;;;;;21.73;13.10;;;;;;;2.73;81.32;100846.92;1724842;83;25589;-63
2024/04/23 04:52:27;;;;;;;24.65;12.73;;;;;;;2.77;81.64;100845.37;1724919;82;25659;-63
2024/04/23 04:54:53;;;;;;;23.90;14.53;;;;;;;2.84;81.58;100846.00;1724832;83;27391;-63
2024/04/23 04:57:19;;;;;;;25.72;13.95;;;;;;;2.92;81.60;100846.14;1724742;83;27279;-63
2024/04/23 04:59:45;;;;;;;25.17;14.13;;;;;;;2.97;81.67;100843.01;1724879;82;25579;-66
2024/04/23 05:02:11;;;;;;;25.12;13.70;;;;;;;3.03;81.77;100834.56;1724819;83;25564;-63
2024/04/23 05:04:37;;;;;;;23.12;13.72;;;;;;;3.12;81.78;100841.63;1724885;83;25409;-63
2024/04/23 05:07:03;;;;;;;24.00;14.33;;;;;;;3.15;81.25;100840.61;1724893;83;27392;-63
2024/04/23 05:09:30;;;;;;;26.55;14.83;;;;;;;3.20;81.41;100843.06;1724793;83;25449;-63
2024/04/23 05:11:56;;;;;;;23.67;13.85;;;;;;;3.27;81.67;100840.51;1724823;83;25610;-63
2024/04/23 05:14:23;;;;;;;24.80;14.58;;;;;;;3.34;81.73;100839.00;1725533;83;25417;-63
2024/04/23 05:19:11;;;;;;;24.87;14.45;;;;;;;3.54;80.90;100846.45;1923648;74;34666;-64
2024/04/23 05:23:21;;;;;;;21.57;12.82;;;;;;;3.60;80.68;100842.80;1904342;74;35149;-63
2024/04/23 05:25:47;;;;;;;25.02;14.38;;;;;;;3.57;80.78;100841.95;1858749;77;25282;-63
2024/04/23 05:28:13;;;;;;;23.30;13.98;;;;;;;3.64;81.22;100841.23;1858649;76;28027;-64
2024/04/23 05:33:24;;;;;;;24.82;14.50;;;;;;;3.84;80.81;100846.02;1860008;77;25359;-64
2024/04/23 05:35:50;;;;;;;25.17;15.23;;;;;;;3.91;80.28;100850.64;1859932;77;25400;-63
2024/04/23 05:38:17;;;;;;;21.45;14.05;;;;;;;3.97;80.09;100854.20;1859983;77;25421;-63
2024/04/23 05:40:43;;;;;;;20.68;14.05;;;;;;;4.01;79.38;100848.62;1860001;77;27499;-63
2024/04/23 05:43:09;;;;;;;23.80;14.80;;;;;;;4.04;79.19;100847.32;1859875;76;25518;-63
2024/04/23 05:45:35;;;;;;;24.50;14.38;;;;;;;4.05;78.57;100846.24;1859882;76;25445;-63
2024/04/23 05:48:57;;;;;;;24.72;14.80;;;;;;;4.04;78.29;100849.45;1859898;77;25587;-64
2024/04/23 05:52:19;;;;;;;25.85;14.07;;;;;;;4.05;78.21;100849.75;1859957;76;25548;-63
2024/04/23 05:55:31;;;;;;;25.77;14.73;;;;;;;4.15;79.05;100849.56;1859919;77;27536;-63
2024/04/23 05:57:58;;;;;;;25.52;13.65;;;;;;;4.21;78.02;100850.70;1859792;77;25513;-63
2024/04/23 06:00:24;;;;;;;23.62;13.60;;;;;;;4.33;78.10;100851.89;1859908;76;25453;-63
2024/04/23 06:02:51;;;;;;;25.68;14.93;;;;;;;4.41;78.39;100847.42;1859832;76;25627;-63
2024/04/23 06:05:18;;;;;;;27.37;15.90;;;;;;;4.54;78.26;100853.42;1859937;76;25443;-63
2024/04/23 06:07:44;;;;;;;21.87;13.70;;;;;;;4.61;77.83;100851.33;1859919;77;27462;-63
2024/04/23 06:10:11;;;;;;;21.68;13.72;;;;;;;4.74;78.09;100856.81;1859831;77;25581;-63
2024/04/23 06:12:37;;;;;;;25.65;14.13;;;;;;;4.80;77.19;100857.94;1859931;77;25431;-63
2024/04/23 06:15:05;;;;;;;21.55;13.55;;;;;;;4.90;76.98;100866.56;1859897;76;25411;-63
2024/04/23 06:17:35;;;;;;;22.15;14.47;;;;;;;4.94;76.19;100865.01;1859916;76;25638;-63
2024/04/23 06:20:05;;;;;;;25.50;13.90;;;;;;;4.95;75.74;100864.46;1859910;77;27567;-63
2024/04/23 06:22:38;;;;;;;21.37;12.85;;;;;;;5.00;75.84;100866.64;1861782;77;25717;-63
2024/04/23 06:25:07;;;;;;;22.17;12.98;;;;;;;5.05;75.29;100873.38;1863738;76;25700;-63
2024/04/23 06:27:36;;;;;;;20.82;13.65;;;;;;;5.13;74.81;100878.01;1863895;76;25908;-63
2024/04/23 06:30:09;;;;;;;22.35;13.93;;;;;;;5.17;74.83;100882.58;1863984;77;28982;-63
2024/04/23 06:32:39;;;;;;;18.77;12.20;;;;;;;5.32;75.91;100882.42;1863711;77;27441;-63
2024/04/23 06:35:08;;;;;;;23.83;12.63;;;;;;;5.49;75.03;100889.75;1863088;76;25597;-64
2024/04/23 06:37:36;;;;;;;21.00;13.72;;;;;;;5.56;74.66;100882.81;1863315;77;25446;-64
2024/04/23 06:40:06;;;;;;;20.08;12.20;;;;;;;5.64;74.02;100882.32;1863131;77;25370;-64
2024/04/23 06:42:31;;;;;;;20.45;12.50;;;;;;;5.81;74.20;100888.84;1863102;76;25512;-64
2024/04/23 06:44:58;;;;;;;20.37;12.90;;;;;;;5.83;72.17;100885.35;1863172;77;27507;-64
2024/04/23 06:47:24;;;;;;;19.40;12.30;;;;;;;5.88;72.66;100884.58;1863043;77;27264;-64
2024/04/23 06:49:51;;;;;;;20.62;13.00;;;;;;;6.01;72.53;100882.78;1863161;76;25622;-64
2024/04/23 06:52:17;;;;;;;21.95;13.65;;;;;;;6.10;71.95;100881.73;1863146;76;25565;-64
2024/04/23 06:54:44;;;;;;;17.85;11.85;;;;;;;6.29;72.85;100886.06;1863183;76;25614;-64
2024/04/23 06:57:10;;;;;;;17.37;12.03;;;;;;;6.51;71.97;100881.27;1863159;76;27794;-64
2024/04/23 06:59:37;;;;;;;16.42;10.35;;;;;;;6.76;71.80;100877.51;1863175;76;25426;-64
2024/04/23 07:02:03;;;;;;;13.70;10.18;;;;;;;6.87;70.00;100873.20;1863232;76;25531;-64
2024/04/23 07:04:29;;;;;;;21.50;11.80;;;;;;;7.03;70.14;100878.57;1863131;76;25913;-64
2024/04/23 07:06:55;;;;;;;14.85;10.55;;;;;;;7.23;70.07;100877.75;1863208;77;25555;-64
2024/04/23 07:09:22;;;;;;;18.90;11.93;;;;;;;7.37;68.94;100883.37;1863121;77;27506;-63
2024/04/23 07:11:48;;;;;;;14.15;10.05;;;;;;;7.55;68.83;100876.05;1863055;76;25726;-64
2024/04/23 07:14:14;;;;;;;18.87;10.32;;;;;;;7.61;66.73;100880.35;1863161;76;25411;-63
2024/04/23 07:16:44;;;;;;;18.23;11.12;;;;;;;7.75;65.81;100883.81;1872195;76;25620;-64
2024/04/23 07:19:09;;;;;;;15.50;10.95;;;;;;;7.78;65.64;100881.37;1862578;76;25359;-64
2024/04/23 07:21:35;;;;;;;17.95;11.53;;;;;;;7.88;65.13;100877.80;1863079;76;27473;-63
2024/04/23 07:24:01;;;;;;;18.40;11.78;;;;;;;8.04;65.44;100882.59;1862991;76;25373;-64
2024/04/23 07:26:27;;;;;;;22.87;11.48;;;;;;;8.18;65.12;100882.23;1863146;76;25381;-64
2024/04/23 07:28:53;;;;;;;15.78;9.25;;;;;;;8.26;64.55;100883.55;1863123;76;34797;-64
2024/04/23 07:31:20;;;;;;;17.50;9.03;;;;;;;8.24;62.21;100878.99;1863114;77;25598;-64
2024/04/23 07:33:46;;;;;;;15.83;8.68;;;;;;;8.04;60.12;100885.30;1863120;76;27452;-64
2024/04/23 07:36:12;;;;;;;15.38;8.75;;;;;;;7.83;59.43;100879.17;1863158;77;25490;-64
2024/04/23 07:38:38;;;;;;;11.55;6.42;;;;;;;7.63;58.72;100877.39;1863087;76;25349;-64
2024/04/23 07:41:05;;;;;;;14.87;7.55;;;;;;;7.48;58.64;100876.34;1863108;76;25760;-64
2024/04/23 07:43:31;;;;;;;14.90;7.55;;;;;;;7.39;59.03;100878.51;1863066;76;25581;-64
2024/04/23 07:45:58;;;;;;;11.63;6.53;;;;;;;7.38;59.82;100877.72;1863081;77;28166;-64
2024/04/23 07:48:24;;;;;;;6.90;5.03;;;;;;;7.39;59.14;100881.20;1862987;76;25595;-64
2024/04/23 07:50:50;;;;;;;9.53;5.35;;;;;;;7.35;58.48;100878.25;1863124;76;25430;-64
2024/04/23 07:53:17;;;;;;;9.40;5.90;;;;;;;7.32;56.90;100878.82;1863033;77;25553;-64
2024/04/23 07:55:43;;;;;;;7.05;5.05;;;;;;;7.14;57.21;100872.66;1863081;77;25413;-64
2024/04/23 07:58:09;;;;;;;8.50;5.78;;;;;;;7.07;56.54;100873.73;1863120;77;27904;-65
2024/04/23 08:00:35;;;;;;;9.10;4.12;;;;;;;6.92;55.74;100874.55;1863016;76;25366;-65
2024/04/23 08:03:02;;;;;;;6.90;4.22;;;;;;;6.83;55.12;100861.39;1863025;76;25441;-65
2024/04/23 08:05:29;;;;;;;7.33;3.90;;;;;;;6.73;54.39;100860.05;1863086;77;25605;-65
2024/04/23 08:07:55;;;;;;;5.83;3.83;;;;;;;6.65;55.08;100860.58;1863139;77;25462;-65
2024/04/23 08:10:21;;;;;;;5.80;3.95;;;;;;;6.61;53.42;100861.66;1863086;77;28163;-65
2024/04/23 08:12:50;;;;;;;5.62;3.92;;;;;;;6.59;54.15;100876.42;1862968;77;25370;-65
2024/04/23 08:15:16;;;;;;;5.05;3.25;;;;;;;6.48;52.38;100867.55;1863457;76;25441;-64
2024/04/23 08:17:44;;;;;;;6.40;4.45;;;;;;;6.43;53.35;100872.38;1863087;77;25358;-64
2024/04/23 08:20:14;;;;;;;8.70;5.50;;;;;;;6.48;54.06;100871.04;1863133;76;25692;-63
2024/04/23 08:22:38;;;;;;;20.12;13.68;;;;;;;6.55;54.10;100866.75;1857993;76;27662;-63
2024/04/23 08:25:07;;;;;;;7.47;5.95;;;;;;;6.59;54.39;100867.84;1849901;77;25772;-66
2024/04/23 08:27:33;;;;;;;7.07;4.60;;;;;;;6.69;53.99;100867.02;1849526;77;25654;-52
2024/04/23 08:29:59;;;;;;;6.60;5.00;;;;;;;6.79;53.61;100862.19;1849175;77;26160;-58
2024/04/23 08:32:25;;;;;;;6.10;4.37;;;;;;;6.86;52.19;100851.44;1849195;77;25694;-58
2024/04/23 08:34:51;;;;;;;7.92;5.08;;;;;;;6.89;52.91;100850.08;1849261;77;27516;-59
2024/04/23 08:37:17;;;;;;;6.90;4.62;;;;;;;7.01;53.08;100842.53;1849094;76;25678;-56
2024/04/23 08:39:43;;;;;;;6.30;4.40;;;;;;;7.32;54.95;100841.15;1849236;77;25671;-58
2024/04/23 08:42:12;;;;;;;7.28;4.75;;;;;;;7.67;53.11;100839.39;1850416;77;25568;-59
2024/04/23 08:44:41;;;;;;;6.75;4.65;;;;;;;7.77;53.01;100832.62;1850810;76;25624;-59
2024/04/23 08:47:08;;;;;;;;;;;;;;;8.10;53.45;100832.17;1853503;77;27446;-59
2024/04/23 08:49:37;;;;;;;10.38;4.83;;;;;;;8.48;53.92;100833.83;1850711;77;25556;-58
2024/04/23 08:52:07;;;;;;;7.03;4.80;;;;;;;8.76;52.60;100830.91;1850477;77;32393;-58
2024/04/23 08:54:33;;;;;;;7.28;5.03;;;;;;;8.84;50.90;100828.95;1850777;77;25809;-58
2024/04/23 08:57:01;;;;;;;9.35;4.50;;;;;;;8.90;50.12;100830.50;1850788;77;25524;-58
2024/04/23 08:59:30;;;;;;;7.90;4.87;;;;;;;8.95;50.48;100823.70;1850765;77;27506;-59
2024/04/23 09:01:59;;;;;;;7.17;4.70;;;;;;;9.05;51.03;100829.55;1850787;76;25350;-59
2024/04/23 09:04:27;;;;;;;9.70;5.28;;;;;;;9.04;48.91;100832.53;1850899;77;25509;-59
2024/04/23 09:06:53;;;;;;;8.25;5.65;;;;;;;8.89;48.44;100832.16;1850722;77;25548;-57
2024/04/23 09:09:21;;;;;;;6.87;5.15;;;;;;;8.70;48.41;100832.86;1850799;77;25536;-56
2024/04/23 09:11:51;;;;;;;7.80;5.42;;;;;;;8.55;48.20;100829.73;1850756;77;27541;-59
2024/04/23 09:14:18;;;;;;;10.48;5.25;;;;;;;8.48;49.29;100831.95;1850668;77;25587;-59
2024/04/23 09:16:45;;;;;;;8.45;5.92;;;;;;;8.51;49.64;100825.18;1850804;76;25380;-65
2024/04/23 09:19:12;;;;;;;54.50;40.17;;;;;;;8.56;49.58;100821.09;1855309;76;25391;-65
2024/04/23 09:21:38;;;;;;;11.43;7.47;;;;;;;8.59;49.63;100824.03;1851028;76;25366;-64
2024/04/23 09:24:05;;;;;;;10.68;6.35;;;;;;;8.65;49.95;100820.77;1850688;76;27506;-59
2024/04/23 09:26:32;;;;;;;8.30;6.03;;;;;;;8.79;49.48;100823.60;1850672;77;25445;-58
2024/04/23 09:28:58;;;;;;;7.67;4.90;;;;;;;8.94;49.80;100816.71;1850700;77;25597;-59
2024/04/23 09:31:25;;;;;;;10.43;5.47;;;;;;;9.11;49.42;100809.53;1855035;76;26249;-60
2024/04/23 09:33:55;;;;;;;11.35;5.55;;;;;;;9.25;48.85;100812.34;1850103;77;25631;-57
2024/04/23 09:36:26;;;;;;;8.28;5.70;;;;;;;9.43;48.42;100812.67;1850725;77;27453;-59
2024/04/23 09:39:02;;;;;;;10.55;5.55;;;;;;;9.46;48.23;100807.50;1850700;77;25374;-57
2024/04/23 09:41:30;;;;;;;7.97;5.53;;;;;;;9.62;48.40;100808.66;1849469;77;25622;-56
2024/04/23 09:43:59;;;;;;;7.05;5.33;;;;;;;9.97;49.45;100804.68;1850688;77;25556;-59
2024/04/23 09:46:32;;;;;;;6.83;4.90;;;;;;;10.59;49.32;100803.23;1850895;77;25374;-57
2024/04/23 09:49:01;;;;;;;8.43;4.62;;;;;;;10.60;46.69;100804.02;1850725;76;27429;-55
2024/04/23 09:51:31;;;;;;;6.85;4.90;;;;;;;10.61;47.04;100805.64;1854748;77;25435;-63
2024/04/23 09:54:04;;;;;;;7.50;4.92;;;;;;;10.67;45.29;100812.55;1850742;76;25528;-64
2024/04/23 09:56:31;;;;;;;6.33;4.83;;;;;;;10.40;44.47;100804.62;1850711;77;25493;-64
2024/04/23 09:58:57;;;;;;;7.70;5.35;;;;;;;10.07;44.06;100805.88;1850775;76;25385;-64
2024/04/23 10:01:27;;;;;;;10.85;5.17;;;;;;;9.87;44.38;100810.23;1850715;77;27526;-65
2024/04/23 10:04:03;;;;;;;6.78;4.50;;;;;;;9.88;45.28;100798.34;1850775;76;25591;-66
2024/04/23 10:06:37;;;;;;;6.15;4.80;;;;;;;10.25;46.17;100804.83;1850849;77;25432;-66
2024/04/23 10:09:15;;;;;;;7.00;4.90;;;;;;;10.85;45.08;100796.02;1850935;76;25494;-66
2024/04/23 10:12:08;;;;;;;10.20;5.05;;;;;;;11.13;44.96;100787.36;1851062;76;25603;-66
2024/04/23 10:14:52;;;;;;;8.13;5.20;;;;;;;11.28;44.92;100789.53;1850958;76;27457;-66
2024/04/23 10:18:07;;;;;;;11.25;6.92;;;;;;;11.64;43.85;100781.45;1839951;77;27470;-66
2024/04/23 10:20:38;;;;;;;7.25;5.00;;;;;;;12.97;46.97;100775.31;1704419;84;25429;-65
2024/04/23 10:23:06;;;;;;;7.37;4.67;;;;;;;13.96;42.41;100766.21;1673253;84;26349;-65
2024/04/23 10:25:34;;;;;;;8.60;4.60;;;;;;;14.46;41.64;100768.95;1726853;83;25494;-65
2024/04/23 10:28:01;;;;;;;8.03;4.97;;;;;;;14.71;40.39;100772.77;1726833;83;28049;-65
2024/04/23 10:30:31;;;;;;;5.35;4.78;;;;;;;14.57;40.24;100770.77;1726687;83;25735;-66
2024/04/23 10:32:59;;;;;;;6.90;4.58;;;;;;;14.95;39.44;100761.88;1726824;83;25510;-65
2024/04/23 10:35:29;;;;;;;8.10;5.37;;;;;;;15.20;39.72;100756.05;1726754;83;25585;-65
2024/04/23 10:37:59;;;;;;;8.33;5.78;;;;;;;15.65;39.43;100762.27;1726849;83;25524;-64
2024/04/23 10:40:28;;;;;;;21.57;20.00;;;;;;;15.51;39.07;100759.02;1726811;82;27582;-65
2024/04/23 10:42:56;;;;;;;35.78;33.42;;;;;;;15.28;37.64;100754.41;1726820;83;25776;-65
2024/04/23 10:45:23;;;;;;;6.20;5.60;;;;;;;14.88;36.23;100761.02;1726853;83;25491;-65
2024/04/23 10:47:51;;;;;;;5.85;3.85;;;;;;;14.36;37.37;100752.39;1726798;83;25685;-64
2024/04/23 10:50:30;;;;;;;7.05;4.90;;;;;;;14.07;36.45;100750.93;1726854;83;25682;-65
2024/04/23 10:52:59;;;;;;;6.85;4.72;;;;;;;13.92;38.25;100744.84;1726984;83;28098;-65
2024/04/23 10:55:27;;;;;;;6.65;4.40;;;;;;;13.98;38.28;100734.62;1738771;81;25579;-65
2024/04/23 10:57:57;;;;;;;5.47;4.17;;;;;;;13.71;37.43;100733.81;1769863;81;25573;-65
2024/04/23 11:00:38;;;;;;;6.40;5.80;;;;;;;13.45;37.50;100729.72;1769790;81;25491;-64
2024/04/23 11:03:15;;;;;;;6.95;4.90;;;;;;;13.19;36.80;100723.62;1763358;81;25441;-58
2024/04/23 11:05:48;;;;;;;5.40;4.90;;;;;;;13.45;36.79;100719.64;1764560;81;28183;-57
2024/04/23 11:08:31;;;;;;;7.15;5.17;;;;;;;14.15;39.25;100718.27;1761606;81;25627;-57
2024/04/23 11:11:06;;;;;;;5.35;4.25;;;;;;;15.26;37.83;100732.94;1763259;81;25547;-57
2024/04/23 11:13:41;;;;;;;7.58;5.47;;;;;;;15.22;36.67;100733.38;1761667;81;25623;-57
2024/04/23 11:16:17;;;;;;;30.55;23.22;;;;;;;15.38;38.11;100717.81;1764441;81;25401;-63
2024/04/23 11:18:51;;;;;;;9.98;7.05;;;;;;;15.56;37.25;100711.66;1764023;81;27471;-62
2024/04/23 11:21:26;;;;;;;11.05;9.33;;;;;;;15.64;36.17;100697.95;1770322;81;25531;-55
2024/04/23 11:23:53;;;;;;;18.65;17.20;;;;;;;15.22;34.80;100710.77;1770348;81;25572;-52
2024/04/23 11:26:24;;;;;;;43.13;40.63;;;;;;;14.57;34.93;100706.25;1770362;81;25504;-56
2024/04/23 11:28:52;;;;;;;45.92;43.05;;;;;;;14.31;36.57;100707.67;1770397;81;25405;-53
2024/04/23 11:31:20;;;;;;;42.48;39.80;;;;;;;14.67;37.45;100701.02;1770361;81;28103;-56
2024/04/23 11:33:50;;;;;;;5.60;4.17;;;;;;;15.40;37.89;100684.99;1770266;81;25755;-55
2024/04/23 11:36:27;;;;;;;7.40;4.50;;;;;;;16.31;37.54;100690.38;1770349;81;25523;-53